createdAt,value
2023-05-19T00:01:43.871Z,8.43
2023-05-19T00:04:30.741Z,12.80
2023-05-19T00:07:36.699Z,11.20
2023-05-19T00:10:25.290Z,11.35
2023-05-19T00:16:23.241Z,10.90
2023-05-19T00:19:10.772Z,10.20
2023-05-19T00:21:56.691Z,7.20
2023-05-19T00:24:42.853Z,14.90
2023-05-19T00:27:36.819Z,19.27
2023-05-19T00:30:29.617Z,14.80
2023-05-19T00:33:22.287Z,13.27
2023-05-19T00:36:15.754Z,18.02
2023-05-19T00:39:08.486Z,17.38
2023-05-19T00:42:02.668Z,16.00
2023-05-19T00:44:56.777Z,11.27
2023-05-19T00:51:04.472Z,10.40
2023-05-19T00:57:14.735Z,13.65
2023-05-19T01:03:23.936Z,12.15
2023-05-19T01:06:19.088Z,13.18
2023-05-19T01:09:17.359Z,10.95
2023-05-19T01:12:10.525Z,9.73
2023-05-19T01:15:05.291Z,14.38
2023-05-19T01:18:03.418Z,14.98
2023-05-19T01:24:18.179Z,11.45
2023-05-19T01:30:31.971Z,12.63
2023-05-19T01:33:25.410Z,13.52
2023-05-19T01:36:27.198Z,10.77
2023-05-19T01:39:20.823Z,11.23
2023-05-19T01:42:14.319Z,16.45
2023-05-19T01:45:10.273Z,13.77
2023-05-19T01:48:06.371Z,16.23
2023-05-19T01:51:00.539Z,15.98
2023-05-19T01:53:54.106Z,14.70
2023-05-19T01:56:53.869Z,14.15
2023-05-19T02:03:18.093Z,15.07
2023-05-19T02:09:26.621Z,14.98
2023-05-19T02:12:26.788Z,16.13
2023-05-19T02:15:17.424Z,15.93
2023-05-19T02:18:12.760Z,20.75
2023-05-19T02:21:05.862Z,13.30
2023-05-19T02:23:58.677Z,19.98
2023-05-19T02:26:52.271Z,16.33
2023-05-19T02:29:44.364Z,18.98
2023-05-19T02:32:37.742Z,18.05
2023-05-19T02:35:31.759Z,16.25
2023-05-19T02:38:24.599Z,16.15
2023-05-19T02:41:18.451Z,10.35
2023-05-19T02:44:11.572Z,10.88
2023-05-19T02:50:16.897Z,15.52
2023-05-19T02:53:10.989Z,15.02
2023-05-19T02:56:40.761Z,13.73
2023-05-19T02:59:33.628Z,15.80
2023-05-19T03:03:03.822Z,12.57
2023-05-19T03:05:56.576Z,10.32
2023-05-19T03:08:50.847Z,9.05
2023-05-19T03:12:20.770Z,15.73
2023-05-19T03:15:14.954Z,10.40
2023-05-19T03:21:19.850Z,12.40
2023-05-19T03:24:13.948Z,18.63
2023-05-19T03:27:06.202Z,15.25
2023-05-19T03:29:59.387Z,17.05
2023-05-19T03:32:53.170Z,14.10
2023-05-19T03:35:45.320Z,23.20
2023-05-19T03:38:38.401Z,15.40
2023-05-19T03:41:32.723Z,15.85
2023-05-19T03:44:26.871Z,20.88
2023-05-19T03:47:19.753Z,16.08
2023-05-19T03:53:49.239Z,16.13
2023-05-19T03:56:43.787Z,17.52
2023-05-19T03:59:37.144Z,16.90
2023-05-19T04:02:30.467Z,18.05
2023-05-19T04:05:36.710Z,18.73
2023-05-19T04:08:30.478Z,19.88
2023-05-19T04:14:28.720Z,15.32
2023-05-19T04:17:23.529Z,17.65
2023-05-19T04:20:16.462Z,20.07
2023-05-19T04:23:09.492Z,16.83
2023-05-19T04:26:03.535Z,18.00
2023-05-19T04:28:57.752Z,19.42
2023-05-19T04:32:18.198Z,22.07
2023-05-19T04:35:13.575Z,20.20
2023-05-19T04:38:06.677Z,21.08
2023-05-19T04:44:18.008Z,23.17
2023-05-19T04:47:13.250Z,26.35
2023-05-19T04:50:04.106Z,23.58
2023-05-19T04:52:56.468Z,20.08
2023-05-19T04:55:51.503Z,21.13
2023-05-19T04:58:44.681Z,18.13
2023-05-19T05:01:40.182Z,16.83
2023-05-19T05:04:34.502Z,17.80
2023-05-19T05:07:31.595Z,19.05
2023-05-19T05:10:25.359Z,19.98
2023-05-19T05:13:19.822Z,21.50
2023-05-19T05:19:19.834Z,12.07
2023-05-19T05:22:14.162Z,10.52
2023-05-19T05:25:09.215Z,15.18
2023-05-19T05:28:39.873Z,14.70
2023-05-19T05:31:32.524Z,11.98
2023-05-19T05:34:25.963Z,13.45
2023-05-19T05:40:28.176Z,9.75
2023-05-19T05:43:21.242Z,8.35
2023-05-19T05:46:23.446Z,10.43
2023-05-19T05:49:16.879Z,11.10
2023-05-19T05:52:12.318Z,11.27
2023-05-19T05:55:12.180Z,12.02
2023-05-19T05:58:10.964Z,6.03
2023-05-19T06:01:04.640Z,6.18
2023-05-19T06:03:57.319Z,8.13
2023-05-19T06:06:52.563Z,9.15
2023-05-19T06:09:48.241Z,8.73
2023-05-19T06:12:43.108Z,7.85
2023-05-19T06:18:50.894Z,5.90
2023-05-19T06:21:45.169Z,11.93
2023-05-19T06:24:39.607Z,7.10
2023-05-19T06:27:34.890Z,9.65
2023-05-19T06:30:28.271Z,5.97
2023-05-19T06:33:40.757Z,6.38
2023-05-19T06:36:35.156Z,7.22
2023-05-19T06:39:28.755Z,7.47
2023-05-19T06:42:22.414Z,9.75
2023-05-19T06:45:22.451Z,4.03
2023-05-19T06:48:42.996Z,11.97
2023-05-19T06:51:35.815Z,6.72
2023-05-19T06:54:56.871Z,8.02
2023-05-19T06:57:49.450Z,9.05
2023-05-19T07:00:58.783Z,7.65
2023-05-19T07:03:58.116Z,10.05
2023-05-19T07:10:12.316Z,5.47
2023-05-19T07:16:51.564Z,5.40
2023-05-19T07:19:46.032Z,5.78
2023-05-19T07:22:39.630Z,4.43
2023-05-19T07:25:33.139Z,9.13
2023-05-19T07:28:25.778Z,6.93
2023-05-19T07:31:18.574Z,8.33
2023-05-19T07:34:11.607Z,8.00
2023-05-19T07:37:05.691Z,8.57
2023-05-19T07:39:52.021Z,8.65
2023-05-19T07:42:44.628Z,9.93
2023-05-19T07:45:37.727Z,9.75
2023-05-19T07:48:30.818Z,6.43
2023-05-19T07:51:23.747Z,6.80
2023-05-19T07:54:22.253Z,8.00
2023-05-19T07:57:15.069Z,11.02
2023-05-19T08:00:11.502Z,8.65
2023-05-19T08:03:07.811Z,7.25
2023-05-19T08:06:00.761Z,8.90
2023-05-19T08:08:54.164Z,6.38
2023-05-19T08:11:47.798Z,11.20
2023-05-19T08:18:01.651Z,12.23
2023-05-19T08:24:42.468Z,5.68
2023-05-19T08:27:36.634Z,5.70
2023-05-19T08:33:58.587Z,8.27
2023-05-19T08:36:51.739Z,5.63
2023-05-19T08:39:44.635Z,6.47
2023-05-19T08:42:33.842Z,4.75
2023-05-19T08:45:28.039Z,5.53
2023-05-19T08:48:20.862Z,9.68
2023-05-19T08:51:19.317Z,5.40
2023-05-19T08:54:15.602Z,11.13
2023-05-19T08:57:09.905Z,7.13
2023-05-19T09:00:08.046Z,5.23
2023-05-19T09:09:10.988Z,6.82
2023-05-19T09:12:03.982Z,7.03
2023-05-19T09:15:02.298Z,7.43
2023-05-19T09:18:07.954Z,4.20
2023-05-19T09:21:02.616Z,6.45
2023-05-19T09:23:55.814Z,3.55
2023-05-19T09:26:48.683Z,4.28
2023-05-19T09:29:41.403Z,7.00
2023-05-19T09:32:36.169Z,8.30
2023-05-19T09:35:30.561Z,5.10
2023-05-19T09:38:25.130Z,5.40
2023-05-19T09:41:18.344Z,3.10
2023-05-19T09:44:13.962Z,6.10
2023-05-19T09:47:07.042Z,3.00
2023-05-19T09:49:59.705Z,2.03
2023-05-19T09:52:54.051Z,2.58
2023-05-19T09:55:46.571Z,3.20
2023-05-19T09:58:42.728Z,3.88
2023-05-19T10:01:36.311Z,3.72
2023-05-19T10:04:32.840Z,2.27
2023-05-19T10:07:25.599Z,10.40
2023-05-19T10:10:20.926Z,4.18
2023-05-19T10:13:13.926Z,10.85
2023-05-19T10:16:06.969Z,5.18
2023-05-19T10:19:00.775Z,4.97
2023-05-19T10:21:54.305Z,3.63
2023-05-19T10:24:47.015Z,4.60
2023-05-19T10:30:38.999Z,1.77
2023-05-19T10:33:32.945Z,3.35
2023-05-19T10:36:33.496Z,4.33
2023-05-19T10:42:39.160Z,8.63
2023-05-19T10:48:47.050Z,6.55
2023-05-19T10:51:34.020Z,4.38
2023-05-19T10:54:40.689Z,5.07
2023-05-19T10:57:28.436Z,4.03
2023-05-19T11:00:28.470Z,4.38
2023-05-19T11:03:16.121Z,3.85
2023-05-19T11:06:19.364Z,3.53
2023-05-19T11:09:13.946Z,4.47
2023-05-19T11:12:07.394Z,3.85
2023-05-19T11:18:28.297Z,6.28
2023-05-19T11:21:22.342Z,3.13
2023-05-19T11:24:34.206Z,4.65
2023-05-19T11:27:28.721Z,4.07
2023-05-19T11:30:21.681Z,8.68
2023-05-19T11:33:14.901Z,3.35
2023-05-19T11:36:07.795Z,2.72
2023-05-19T11:39:02.559Z,4.65
2023-05-19T11:42:20.953Z,4.70
2023-05-19T11:45:13.750Z,3.00
2023-05-19T11:48:43.919Z,3.60
2023-05-19T11:51:39.510Z,2.75
2023-05-19T11:54:36.600Z,3.97
2023-05-19T11:57:29.835Z,3.20
2023-05-19T12:00:23.523Z,4.63
2023-05-19T12:03:17.259Z,4.28
2023-05-19T12:06:11.157Z,3.60
2023-05-19T12:09:05.429Z,2.28
2023-05-19T12:11:59.018Z,3.80
2023-05-19T12:14:52.675Z,6.35
2023-05-19T12:17:51.199Z,4.90
2023-05-19T12:20:43.326Z,5.97
2023-05-19T12:23:35.690Z,4.75
2023-05-19T12:26:28.990Z,7.07
2023-05-19T12:29:22.953Z,4.80
2023-05-19T12:32:16.335Z,8.10
2023-05-19T12:38:21.473Z,10.02
2023-05-19T12:44:24.863Z,7.50
2023-05-19T12:47:19.664Z,5.28
2023-05-19T12:50:12.625Z,3.37
2023-05-19T12:53:09.918Z,2.45
2023-05-19T12:56:27.932Z,3.25
2023-05-19T12:59:37.279Z,4.72
2023-05-19T13:02:30.819Z,3.67
2023-05-19T13:05:24.563Z,9.15
2023-05-19T13:08:19.014Z,3.03
2023-05-19T13:11:11.690Z,2.78
2023-05-19T13:14:04.404Z,4.13
2023-05-19T13:20:11.940Z,3.63
2023-05-19T13:23:05.673Z,6.20
2023-05-19T13:25:59.281Z,3.50
2023-05-19T13:32:12.404Z,8.57
2023-05-19T13:38:31.138Z,3.22
2023-05-19T13:41:24.748Z,3.92
2023-05-19T13:44:17.630Z,2.55
2023-05-19T13:47:10.783Z,2.78
2023-05-19T13:50:04.298Z,2.72
2023-05-19T13:52:56.966Z,7.10
2023-05-19T13:55:52.864Z,2.90
2023-05-19T13:58:45.707Z,2.22
2023-05-19T14:01:38.439Z,4.05
2023-05-19T14:04:31.965Z,4.03
2023-05-19T14:07:25.347Z,8.88
2023-05-19T14:13:31.560Z,3.05
2023-05-19T14:16:26.299Z,2.50
2023-05-19T14:19:18.854Z,4.07
2023-05-19T14:22:13.230Z,4.13
2023-05-19T14:25:06.310Z,5.63
2023-05-19T14:27:58.888Z,6.95
2023-05-19T14:30:54.279Z,5.47
2023-05-19T14:33:46.545Z,1.90
2023-05-19T14:36:39.292Z,2.50
2023-05-19T14:39:31.934Z,3.33
2023-05-19T14:42:24.443Z,7.15
2023-05-19T14:45:16.488Z,3.15
2023-05-19T14:51:23.271Z,4.68
2023-05-19T14:54:15.933Z,8.35
2023-05-19T14:57:08.690Z,6.43
2023-05-19T15:00:01.786Z,1.92
2023-05-19T15:02:54.329Z,6.53
2023-05-19T15:05:46.887Z,2.40
2023-05-19T15:08:41.430Z,1.98
2023-05-19T15:11:33.502Z,5.22
2023-05-19T15:15:03.895Z,4.75
2023-05-19T15:17:56.516Z,3.20
2023-05-19T15:24:20.103Z,4.53
2023-05-19T15:27:12.811Z,1.85
2023-05-19T15:30:06.412Z,2.10
2023-05-19T15:32:58.701Z,3.83
2023-05-19T15:35:55.319Z,3.20
2023-05-19T15:38:47.835Z,2.95
2023-05-19T15:41:42.192Z,2.30
2023-05-19T15:44:36.354Z,4.50
2023-05-19T15:47:28.516Z,2.13
2023-05-19T15:50:21.772Z,4.18
2023-05-19T15:53:51.900Z,4.97
2023-05-19T15:56:45.980Z,2.60
2023-05-19T15:59:38.860Z,1.98
2023-05-19T16:02:31.714Z,2.58
2023-05-19T16:05:24.925Z,2.83
2023-05-19T16:11:29.994Z,1.92
2023-05-19T16:14:24.505Z,2.47
2023-05-19T16:20:29.721Z,3.50
2023-05-19T16:23:24.508Z,5.43
2023-05-19T16:29:45.658Z,3.03
2023-05-19T16:32:38.851Z,5.03
2023-05-19T16:35:32.074Z,3.67
2023-05-19T16:38:24.616Z,2.13
2023-05-19T16:41:17.556Z,3.40
2023-05-19T16:47:48.161Z,2.17
2023-05-19T16:51:17.901Z,4.33
2023-05-19T16:54:10.817Z,6.45
2023-05-19T16:57:04.559Z,2.70
2023-05-19T17:03:07.375Z,1.85
2023-05-19T17:06:00.778Z,1.90
2023-05-19T17:09:02.925Z,1.73
2023-05-19T17:11:56.416Z,3.03
2023-05-19T17:14:50.262Z,1.98
2023-05-19T17:17:42.836Z,2.90
2023-05-19T17:20:36.789Z,3.72
2023-05-19T17:23:29.455Z,2.35
2023-05-19T17:29:34.416Z,1.20
2023-05-19T17:35:32.035Z,3.13
2023-05-19T17:38:26.092Z,4.22
2023-05-19T17:41:18.646Z,5.25
2023-05-19T17:44:36.707Z,1.90
2023-05-19T17:47:29.829Z,3.25
2023-05-19T17:50:37.989Z,13.37
2023-05-19T17:53:32.519Z,5.72
2023-05-19T17:56:26.497Z,3.63
2023-05-19T17:59:19.166Z,6.97
2023-05-19T18:02:12.875Z,3.25
2023-05-19T18:05:07.072Z,4.65
2023-05-19T18:08:03.404Z,5.25
2023-05-19T18:10:58.256Z,5.78
2023-05-19T18:13:50.564Z,4.90
2023-05-19T18:16:44.056Z,5.07
2023-05-19T18:20:08.550Z,3.55
2023-05-19T18:23:02.572Z,3.50
2023-05-19T18:29:11.125Z,3.05
2023-05-19T18:35:17.129Z,5.05
2023-05-19T18:38:09.641Z,3.20
2023-05-19T18:41:09.300Z,3.17
2023-05-19T18:44:01.531Z,2.72
2023-05-19T18:46:54.998Z,4.45
2023-05-19T18:49:47.956Z,4.55
2023-05-19T18:52:40.816Z,3.85
2023-05-19T18:55:33.574Z,2.92
2023-05-19T19:01:35.101Z,5.50
2023-05-19T19:04:29.338Z,4.97
2023-05-19T19:10:38.928Z,3.33
2023-05-19T19:13:31.604Z,3.38
2023-05-19T19:16:24.795Z,7.57
2023-05-19T19:19:54.997Z,3.27
2023-05-19T19:22:48.947Z,3.42
2023-05-19T19:26:18.930Z,5.15
2023-05-19T19:29:11.896Z,5.60
2023-05-19T19:32:05.371Z,3.22
2023-05-19T19:34:57.878Z,2.50
2023-05-19T19:37:52.532Z,3.00
2023-05-19T19:40:44.421Z,3.67
2023-05-19T19:43:36.554Z,2.70
2023-05-19T19:46:29.766Z,2.90
2023-05-19T19:49:23.016Z,3.63
2023-05-19T19:55:23.939Z,4.28
2023-05-19T19:58:16.878Z,3.72
2023-05-19T20:01:09.918Z,4.82
2023-05-19T20:04:39.959Z,8.27
2023-05-19T20:07:33.041Z,3.40
2023-05-19T20:10:27.269Z,4.43
2023-05-19T20:16:40.284Z,3.13
2023-05-19T20:19:32.888Z,4.93
2023-05-19T20:22:25.465Z,2.45
2023-05-19T20:25:17.618Z,4.43
2023-05-19T20:28:12.102Z,2.85
2023-05-19T20:34:37.537Z,5.25
2023-05-19T20:37:54.710Z,5.78
2023-05-19T20:40:41.863Z,3.58
2023-05-19T20:47:22.114Z,3.45
2023-05-19T20:50:14.922Z,7.60
2023-05-19T20:53:07.919Z,3.15
2023-05-19T20:56:00.601Z,4.93
2023-05-19T21:02:07.498Z,5.07
2023-05-19T21:05:02.370Z,3.57
2023-05-19T21:07:54.575Z,4.80
2023-05-19T21:10:47.707Z,6.07
2023-05-19T21:13:40.505Z,8.93
2023-05-19T21:16:29.805Z,5.20
2023-05-19T21:19:22.826Z,4.38
2023-05-19T21:22:17.445Z,5.20
2023-05-19T21:25:09.967Z,5.80
2023-05-19T21:28:03.215Z,5.85
2023-05-19T21:30:55.674Z,4.35
2023-05-19T21:33:48.585Z,4.65
2023-05-19T21:36:42.184Z,5.57
2023-05-19T21:39:35.484Z,4.13
2023-05-19T21:42:27.972Z,3.75
2023-05-19T21:45:20.672Z,3.58
2023-05-19T21:48:13.717Z,2.95
2023-05-19T21:51:00.437Z,5.90
2023-05-19T21:53:52.588Z,4.40
2023-05-19T21:56:47.245Z,6.30
2023-05-19T21:59:39.997Z,6.35
2023-05-19T22:02:33.005Z,4.60
2023-05-19T22:05:25.942Z,6.05
2023-05-19T22:08:19.587Z,3.70
2023-05-19T22:11:14.763Z,5.55
2023-05-19T22:14:08.834Z,4.63
2023-05-19T22:17:02.032Z,2.60
2023-05-19T22:20:26.739Z,5.95
2023-05-19T22:23:19.844Z,2.97
2023-05-19T22:26:12.991Z,3.97
2023-05-19T22:29:06.042Z,3.72
2023-05-19T22:32:00.408Z,2.90
2023-05-19T22:34:54.635Z,5.47
2023-05-19T22:37:47.876Z,2.75
2023-05-19T22:40:40.759Z,2.53
2023-05-19T22:43:33.544Z,2.97
2023-05-19T22:46:26.860Z,3.75
2023-05-19T22:49:24.328Z,3.15
2023-05-19T22:52:17.207Z,3.67
2023-05-19T22:55:10.483Z,3.22
2023-05-19T22:58:03.064Z,3.53
2023-05-19T23:04:09.201Z,2.80
2023-05-19T23:10:15.511Z,5.05
2023-05-19T23:16:20.086Z,3.50
2023-05-19T23:19:12.546Z,2.97
2023-05-19T23:22:06.213Z,3.38
2023-05-19T23:24:58.690Z,3.50
2023-05-19T23:27:53.381Z,3.20
2023-05-19T23:30:45.859Z,2.38
2023-05-19T23:33:38.444Z,3.17
2023-05-19T23:36:24.418Z,2.55
2023-05-19T23:39:10.501Z,5.57
2023-05-19T23:41:57.042Z,2.80
2023-05-19T23:44:44.537Z,2.72
2023-05-19T23:47:30.768Z,2.30
2023-05-19T23:50:16.881Z,3.38
2023-05-19T23:53:03.136Z,3.58
2023-05-19T23:55:49.230Z,3.33
2023-05-19T23:58:38.660Z,1.90
